sensor_id;sensor_type;location;lat;lon;timestamp;P1;durP1;ratioP1;P2;durP2;ratioP2
23682;SDS011;24897;53.514;10.482;2023-01-29T00:02:07;104.03;;;65.30;;
23682;SDS011;24897;53.514;10.482;2023-01-29T00:04:52;105.43;;;61.13;;
23682;SDS011;24897;53.514;10.482;2023-01-29T00:07:36;108.70;;;61.50;;
23682;SDS011;24897;53.514;10.482;2023-01-29T00:10:20;102.43;;;59.03;;
23682;SDS011;24897;53.514;10.482;2023-01-29T00:13:05;118.93;;;69.17;;
23682;SDS011;24897;53.514;10.482;2023-01-29T00:15:53;120.63;;;67.20;;
23682;SDS011;24897;53.514;10.482;2023-01-29T00:18:39;127.27;;;66.60;;
23682;SDS011;24897;53.514;10.482;2023-01-29T00:21:24;126.10;;;67.03;;
23682;SDS011;24897;53.514;10.482;2023-01-29T00:24:08;124.93;;;68.03;;
23682;SDS011;24897;53.514;10.482;2023-01-29T00:26:52;129.23;;;68.03;;
23682;SDS011;24897;53.514;10.482;2023-01-29T00:29:36;126.20;;;66.77;;
23682;SDS011;24897;53.514;10.482;2023-01-29T00:32:20;129.53;;;67.50;;
23682;SDS011;24897;53.514;10.482;2023-01-29T00:35:04;125.93;;;66.60;;
23682;SDS011;24897;53.514;10.482;2023-01-29T00:37:50;126.47;;;67.93;;
23682;SDS011;24897;53.514;10.482;2023-01-29T00:40:36;119.70;;;66.07;;
23682;SDS011;24897;53.514;10.482;2023-01-29T00:43:40;127.67;;;69.13;;
23682;SDS011;24897;53.514;10.482;2023-01-29T00:46:43;128.93;;;68.20;;
23682;SDS011;24897;53.514;10.482;2023-01-29T00:49:28;131.10;;;68.97;;
23682;SDS011;24897;53.514;10.482;2023-01-29T00:52:13;130.77;;;71.43;;
23682;SDS011;24897;53.514;10.482;2023-01-29T00:55:09;135.50;;;70.57;;
23682;SDS011;24897;53.514;10.482;2023-01-29T00:57:54;130.27;;;70.63;;
23682;SDS011;24897;53.514;10.482;2023-01-29T01:00:38;131.57;;;71.17;;
23682;SDS011;24897;53.514;10.482;2023-01-29T01:03:22;134.23;;;74.23;;
23682;SDS011;24897;53.514;10.482;2023-01-29T01:06:08;133.67;;;70.77;;
23682;SDS011;24897;53.514;10.482;2023-01-29T01:08:53;134.73;;;71.37;;
23682;SDS011;24897;53.514;10.482;2023-01-29T01:11:56;135.67;;;72.90;;
23682;SDS011;24897;53.514;10.482;2023-01-29T01:14:40;123.27;;;69.00;;
23682;SDS011;24897;53.514;10.482;2023-01-29T01:17:27;137.50;;;70.67;;
23682;SDS011;24897;53.514;10.482;2023-01-29T01:20:11;149.93;;;75.00;;
23682;SDS011;24897;53.514;10.482;2023-01-29T01:22:56;140.60;;;73.43;;
23682;SDS011;24897;53.514;10.482;2023-01-29T01:25:40;146.03;;;72.83;;
23682;SDS011;24897;53.514;10.482;2023-01-29T01:28:24;153.53;;;75.03;;
23682;SDS011;24897;53.514;10.482;2023-01-29T01:31:09;146.27;;;71.23;;
23682;SDS011;24897;53.514;10.482;2023-01-29T01:33:55;149.73;;;72.93;;
23682;SDS011;24897;53.514;10.482;2023-01-29T01:36:39;151.50;;;76.23;;
23682;SDS011;24897;53.514;10.482;2023-01-29T01:39:24;139.63;;;70.90;;
23682;SDS011;24897;53.514;10.482;2023-01-29T01:42:11;124.00;;;64.73;;
23682;SDS011;24897;53.514;10.482;2023-01-29T01:44:57;145.33;;;70.97;;
23682;SDS011;24897;53.514;10.482;2023-01-29T01:47:48;138.90;;;71.90;;
23682;SDS011;24897;53.514;10.482;2023-01-29T01:50:43;142.20;;;71.20;;
23682;SDS011;24897;53.514;10.482;2023-01-29T01:53:46;144.83;;;72.67;;
23682;SDS011;24897;53.514;10.482;2023-01-29T01:56:37;146.47;;;72.90;;
23682;SDS011;24897;53.514;10.482;2023-01-29T01:59:24;141.60;;;71.60;;
23682;SDS011;24897;53.514;10.482;2023-01-29T02:02:08;143.10;;;71.83;;
23682;SDS011;24897;53.514;10.482;2023-01-29T02:05:11;147.87;;;72.50;;
23682;SDS011;24897;53.514;10.482;2023-01-29T02:08:23;146.73;;;69.60;;
23682;SDS011;24897;53.514;10.482;2023-01-29T02:11:33;132.10;;;68.43;;
23682;SDS011;24897;53.514;10.482;2023-01-29T02:14:18;142.63;;;75.53;;
23682;SDS011;24897;53.514;10.482;2023-01-29T02:17:04;140.57;;;70.67;;
23682;SDS011;24897;53.514;10.482;2023-01-29T02:20:02;151.63;;;73.43;;
23682;SDS011;24897;53.514;10.482;2023-01-29T02:29:15;141.43;;;69.37;;
23682;SDS011;24897;53.514;10.482;2023-01-29T02:32:29;140.13;;;71.33;;
23682;SDS011;24897;53.514;10.482;2023-01-29T02:41:36;120.00;;;64.70;;
23682;SDS011;24897;53.514;10.482;2023-01-29T02:44:41;124.50;;;65.30;;
23682;SDS011;24897;53.514;10.482;2023-01-29T02:47:47;136.20;;;69.80;;
23682;SDS011;24897;53.514;10.482;2023-01-29T02:50:45;142.60;;;70.23;;
23682;SDS011;24897;53.514;10.482;2023-01-29T02:53:47;148.23;;;70.77;;
23682;SDS011;24897;53.514;10.482;2023-01-29T02:59:34;123.90;;;66.00;;
23682;SDS011;24897;53.514;10.482;2023-01-29T03:02:27;142.17;;;69.37;;
23682;SDS011;24897;53.514;10.482;2023-01-29T03:08:38;135.37;;;68.43;;
23682;SDS011;24897;53.514;10.482;2023-01-29T03:11:38;126.13;;;68.77;;
23682;SDS011;24897;53.514;10.482;2023-01-29T03:14:33;131.47;;;66.33;;
23682;SDS011;24897;53.514;10.482;2023-01-29T03:20:31;115.73;;;63.23;;
23682;SDS011;24897;53.514;10.482;2023-01-29T03:23:21;105.97;;;59.83;;
23682;SDS011;24897;53.514;10.482;2023-01-29T03:26:20;117.83;;;62.87;;
23682;SDS011;24897;53.514;10.482;2023-01-29T03:29:24;115.63;;;64.07;;
23682;SDS011;24897;53.514;10.482;2023-01-29T03:32:27;120.00;;;65.30;;
23682;SDS011;24897;53.514;10.482;2023-01-29T03:35:13;124.90;;;61.90;;
23682;SDS011;24897;53.514;10.482;2023-01-29T03:38:06;130.77;;;63.60;;
23682;SDS011;24897;53.514;10.482;2023-01-29T03:40:56;120.77;;;63.30;;
23682;SDS011;24897;53.514;10.482;2023-01-29T03:43:55;128.53;;;64.57;;
23682;SDS011;24897;53.514;10.482;2023-01-29T03:59:39;117.33;;;62.20;;
23682;SDS011;24897;53.514;10.482;2023-01-29T04:02:41;118.33;;;63.23;;
23682;SDS011;24897;53.514;10.482;2023-01-29T04:05:39;109.57;;;60.47;;
23682;SDS011;24897;53.514;10.482;2023-01-29T04:08:29;109.73;;;62.57;;
23682;SDS011;24897;53.514;10.482;2023-01-29T04:11:17;107.27;;;62.53;;
23682;SDS011;24897;53.514;10.482;2023-01-29T04:14:04;114.27;;;64.00;;
23682;SDS011;24897;53.514;10.482;2023-01-29T04:16:51;110.30;;;62.53;;
23682;SDS011;24897;53.514;10.482;2023-01-29T04:19:38;107.47;;;60.20;;
23682;SDS011;24897;53.514;10.482;2023-01-29T04:22:25;109.47;;;59.87;;
23682;SDS011;24897;53.514;10.482;2023-01-29T04:25:18;107.80;;;60.47;;
23682;SDS011;24897;53.514;10.482;2023-01-29T04:28:12;99.37;;;56.93;;
23682;SDS011;24897;53.514;10.482;2023-01-29T04:31:04;105.37;;;62.47;;
23682;SDS011;24897;53.514;10.482;2023-01-29T04:34:39;111.60;;;61.80;;
23682;SDS011;24897;53.514;10.482;2023-01-29T04:37:07;104.37;;;59.07;;
23682;SDS011;24897;53.514;10.482;2023-01-29T04:46:13;100.90;;;57.37;;
23682;SDS011;24897;53.514;10.482;2023-01-29T04:58:28;100.80;;;56.90;;
23682;SDS011;24897;53.514;10.482;2023-01-29T05:01:18;106.80;;;57.93;;
23682;SDS011;24897;53.514;10.482;2023-01-29T05:04:06;112.57;;;59.50;;
23682;SDS011;24897;53.514;10.482;2023-01-29T05:06:54;106.80;;;58.00;;
23682;SDS011;24897;53.514;10.482;2023-01-29T05:09:38;94.73;;;53.57;;
23682;SDS011;24897;53.514;10.482;2023-01-29T05:12:27;113.10;;;58.77;;
23682;SDS011;24897;53.514;10.482;2023-01-29T05:15:13;118.20;;;59.97;;
23682;SDS011;24897;53.514;10.482;2023-01-29T05:18:02;118.23;;;59.60;;
23682;SDS011;24897;53.514;10.482;2023-01-29T05:20:51;119.40;;;59.53;;
23682;SDS011;24897;53.514;10.482;2023-01-29T05:23:38;106.07;;;57.23;;
23682;SDS011;24897;53.514;10.482;2023-01-29T05:26:22;104.23;;;57.37;;
23682;SDS011;24897;53.514;10.482;2023-01-29T05:29:25;114.20;;;59.23;;
23682;SDS011;24897;53.514;10.482;2023-01-29T05:32:09;100.53;;;54.53;;
23682;SDS011;24897;53.514;10.482;2023-01-29T05:34:53;110.73;;;58.00;;
23682;SDS011;24897;53.514;10.482;2023-01-29T05:37:37;119.73;;;61.40;;
23682;SDS011;24897;53.514;10.482;2023-01-29T05:40:23;120.47;;;60.37;;
23682;SDS011;24897;53.514;10.482;2023-01-29T05:45:59;111.33;;;61.33;;
23682;SDS011;24897;53.514;10.482;2023-01-29T05:48:44;127.07;;;66.30;;
23682;SDS011;24897;53.514;10.482;2023-01-29T05:51:28;108.63;;;60.30;;
23682;SDS011;24897;53.514;10.482;2023-01-29T05:54:12;124.13;;;60.50;;
23682;SDS011;24897;53.514;10.482;2023-01-29T05:56:57;113.00;;;61.30;;
23682;SDS011;24897;53.514;10.482;2023-01-29T05:59:41;119.90;;;62.70;;
23682;SDS011;24897;53.514;10.482;2023-01-29T06:02:28;101.10;;;54.63;;
23682;SDS011;24897;53.514;10.482;2023-01-29T06:05:14;107.40;;;56.67;;
23682;SDS011;24897;53.514;10.482;2023-01-29T06:07:58;101.63;;;57.73;;
23682;SDS011;24897;53.514;10.482;2023-01-29T06:10:42;109.70;;;59.97;;
23682;SDS011;24897;53.514;10.482;2023-01-29T06:13:26;109.60;;;57.73;;
23682;SDS011;24897;53.514;10.482;2023-01-29T06:16:11;98.43;;;55.43;;
23682;SDS011;24897;53.514;10.482;2023-01-29T06:18:56;106.17;;;55.73;;
23682;SDS011;24897;53.514;10.482;2023-01-29T06:21:40;103.83;;;56.17;;
23682;SDS011;24897;53.514;10.482;2023-01-29T06:24:24;97.03;;;55.70;;
23682;SDS011;24897;53.514;10.482;2023-01-29T06:27:08;99.63;;;53.90;;
23682;SDS011;24897;53.514;10.482;2023-01-29T06:29:52;97.50;;;55.00;;
23682;SDS011;24897;53.514;10.482;2023-01-29T06:32:36;106.40;;;57.30;;
23682;SDS011;24897;53.514;10.482;2023-01-29T06:35:20;113.80;;;58.97;;
23682;SDS011;24897;53.514;10.482;2023-01-29T06:38:04;119.33;;;62.70;;
23682;SDS011;24897;53.514;10.482;2023-01-29T06:40:48;119.77;;;63.97;;
23682;SDS011;24897;53.514;10.482;2023-01-29T06:43:33;124.40;;;63.00;;
23682;SDS011;24897;53.514;10.482;2023-01-29T06:46:17;122.70;;;62.23;;
23682;SDS011;24897;53.514;10.482;2023-01-29T06:49:01;127.10;;;66.13;;
23682;SDS011;24897;53.514;10.482;2023-01-29T06:51:45;125.00;;;63.63;;
23682;SDS011;24897;53.514;10.482;2023-01-29T06:54:29;137.30;;;71.90;;
23682;SDS011;24897;53.514;10.482;2023-01-29T06:57:13;139.93;;;71.13;;
23682;SDS011;24897;53.514;10.482;2023-01-29T06:59:57;125.53;;;66.87;;
23682;SDS011;24897;53.514;10.482;2023-01-29T07:02:42;122.80;;;64.53;;
23682;SDS011;24897;53.514;10.482;2023-01-29T07:05:26;131.87;;;65.90;;
23682;SDS011;24897;53.514;10.482;2023-01-29T07:08:11;120.50;;;63.93;;
23682;SDS011;24897;53.514;10.482;2023-01-29T07:10:58;122.13;;;64.70;;
23682;SDS011;24897;53.514;10.482;2023-01-29T07:13:43;110.27;;;62.07;;
23682;SDS011;24897;53.514;10.482;2023-01-29T07:16:27;117.03;;;63.80;;
23682;SDS011;24897;53.514;10.482;2023-01-29T07:19:12;111.40;;;61.90;;
23682;SDS011;24897;53.514;10.482;2023-01-29T07:21:56;113.67;;;63.10;;
23682;SDS011;24897;53.514;10.482;2023-01-29T07:24:45;109.37;;;61.53;;
23682;SDS011;24897;53.514;10.482;2023-01-29T07:27:30;108.20;;;61.67;;
23682;SDS011;24897;53.514;10.482;2023-01-29T07:30:15;100.37;;;58.50;;
23682;SDS011;24897;53.514;10.482;2023-01-29T07:33:03;95.87;;;57.50;;
23682;SDS011;24897;53.514;10.482;2023-01-29T07:35:49;101.53;;;58.07;;
23682;SDS011;24897;53.514;10.482;2023-01-29T07:38:33;103.83;;;58.70;;
23682;SDS011;24897;53.514;10.482;2023-01-29T07:41:18;104.67;;;58.97;;
23682;SDS011;24897;53.514;10.482;2023-01-29T07:44:02;99.77;;;55.87;;
23682;SDS011;24897;53.514;10.482;2023-01-29T07:46:47;101.60;;;57.83;;
23682;SDS011;24897;53.514;10.482;2023-01-29T07:49:31;99.20;;;55.43;;
23682;SDS011;24897;53.514;10.482;2023-01-29T07:52:15;98.43;;;56.37;;
23682;SDS011;24897;53.514;10.482;2023-01-29T07:55:01;93.77;;;54.03;;
23682;SDS011;24897;53.514;10.482;2023-01-29T07:57:45;92.13;;;56.37;;
23682;SDS011;24897;53.514;10.482;2023-01-29T08:00:30;87.83;;;52.27;;
23682;SDS011;24897;53.514;10.482;2023-01-29T08:03:16;92.37;;;56.43;;
23682;SDS011;24897;53.514;10.482;2023-01-29T08:06:02;90.40;;;54.73;;
23682;SDS011;24897;53.514;10.482;2023-01-29T08:08:47;90.57;;;57.83;;
23682;SDS011;24897;53.514;10.482;2023-01-29T08:11:31;84.23;;;54.63;;
23682;SDS011;24897;53.514;10.482;2023-01-29T08:14:16;89.80;;;54.33;;
23682;SDS011;24897;53.514;10.482;2023-01-29T08:17:00;91.40;;;56.03;;
23682;SDS011;24897;53.514;10.482;2023-01-29T08:19:44;89.83;;;55.57;;
23682;SDS011;24897;53.514;10.482;2023-01-29T08:22:28;88.70;;;55.60;;
23682;SDS011;24897;53.514;10.482;2023-01-29T08:25:12;88.30;;;53.50;;
23682;SDS011;24897;53.514;10.482;2023-01-29T08:27:58;88.00;;;57.43;;
23682;SDS011;24897;53.514;10.482;2023-01-29T08:30:43;90.40;;;56.10;;
23682;SDS011;24897;53.514;10.482;2023-01-29T08:33:27;90.40;;;56.87;;
23682;SDS011;24897;53.514;10.482;2023-01-29T08:36:12;92.60;;;56.80;;
23682;SDS011;24897;53.514;10.482;2023-01-29T08:38:56;90.73;;;58.43;;
23682;SDS011;24897;53.514;10.482;2023-01-29T08:41:40;89.50;;;58.63;;
23682;SDS011;24897;53.514;10.482;2023-01-29T08:44:24;89.03;;;56.63;;
23682;SDS011;24897;53.514;10.482;2023-01-29T08:47:08;92.37;;;57.97;;
23682;SDS011;24897;53.514;10.482;2023-01-29T08:49:55;92.27;;;58.10;;
23682;SDS011;24897;53.514;10.482;2023-01-29T08:52:41;93.47;;;57.90;;
23682;SDS011;24897;53.514;10.482;2023-01-29T08:55:26;96.33;;;61.60;;
23682;SDS011;24897;53.514;10.482;2023-01-29T08:58:11;83.00;;;54.13;;
23682;SDS011;24897;53.514;10.482;2023-01-29T09:00:55;95.00;;;60.07;;
23682;SDS011;24897;53.514;10.482;2023-01-29T09:03:39;99.03;;;62.20;;
23682;SDS011;24897;53.514;10.482;2023-01-29T09:06:26;95.70;;;63.50;;
23682;SDS011;24897;53.514;10.482;2023-01-29T09:09:10;96.77;;;59.97;;
23682;SDS011;24897;53.514;10.482;2023-01-29T09:11:54;100.77;;;60.23;;
23682;SDS011;24897;53.514;10.482;2023-01-29T09:14:38;100.90;;;60.97;;
23682;SDS011;24897;53.514;10.482;2023-01-29T09:17:22;102.73;;;61.67;;
23682;SDS011;24897;53.514;10.482;2023-01-29T09:20:06;99.73;;;60.23;;
23682;SDS011;24897;53.514;10.482;2023-01-29T09:22:51;111.67;;;64.07;;
23682;SDS011;24897;53.514;10.482;2023-01-29T09:25:41;109.97;;;71.63;;
23682;SDS011;24897;53.514;10.482;2023-01-29T09:28:25;112.10;;;67.60;;
23682;SDS011;24897;53.514;10.482;2023-01-29T09:31:10;110.60;;;62.87;;
23682;SDS011;24897;53.514;10.482;2023-01-29T09:33:54;116.13;;;66.23;;
23682;SDS011;24897;53.514;10.482;2023-01-29T09:36:38;115.43;;;67.67;;
23682;SDS011;24897;53.514;10.482;2023-01-29T09:39:22;110.30;;;68.47;;
23682;SDS011;24897;53.514;10.482;2023-01-29T09:47:58;122.37;;;69.70;;
23682;SDS011;24897;53.514;10.482;2023-01-29T09:50:46;124.33;;;73.23;;
23682;SDS011;24897;53.514;10.482;2023-01-29T09:53:39;120.97;;;68.00;;
23682;SDS011;24897;53.514;10.482;2023-01-29T09:56:29;133.87;;;72.23;;
23682;SDS011;24897;53.514;10.482;2023-01-29T09:59:14;117.07;;;69.57;;
23682;SDS011;24897;53.514;10.482;2023-01-29T10:02:04;125.70;;;68.63;;
23682;SDS011;24897;53.514;10.482;2023-01-29T10:20:33;154.70;;;76.63;;
23682;SDS011;24897;53.514;10.482;2023-01-29T10:23:33;168.13;;;78.97;;
23682;SDS011;24897;53.514;10.482;2023-01-29T10:26:21;167.27;;;78.23;;
23682;SDS011;24897;53.514;10.482;2023-01-29T10:29:09;157.70;;;76.57;;
23682;SDS011;24897;53.514;10.482;2023-01-29T10:32:01;158.93;;;74.67;;
23682;SDS011;24897;53.514;10.482;2023-01-29T10:34:52;148.47;;;74.10;;
23682;SDS011;24897;53.514;10.482;2023-01-29T10:37:42;158.83;;;76.80;;
23682;SDS011;24897;53.514;10.482;2023-01-29T10:55:53;139.77;;;73.43;;
23682;SDS011;24897;53.514;10.482;2023-01-29T10:58:57;141.80;;;72.83;;
23682;SDS011;24897;53.514;10.482;2023-01-29T11:01:46;133.43;;;72.33;;
23682;SDS011;24897;53.514;10.482;2023-01-29T11:04:30;129.53;;;69.67;;
23682;SDS011;24897;53.514;10.482;2023-01-29T11:07:15;124.23;;;73.30;;
23682;SDS011;24897;53.514;10.482;2023-01-29T11:10:03;124.67;;;71.37;;
23682;SDS011;24897;53.514;10.482;2023-01-29T11:12:53;117.73;;;70.43;;
23682;SDS011;24897;53.514;10.482;2023-01-29T11:15:39;126.23;;;75.63;;
23682;SDS011;24897;53.514;10.482;2023-01-29T11:18:23;115.07;;;67.53;;
23682;SDS011;24897;53.514;10.482;2023-01-29T11:21:07;123.40;;;72.60;;
23682;SDS011;24897;53.514;10.482;2023-01-29T11:24:10;118.17;;;73.27;;
23682;SDS011;24897;53.514;10.482;2023-01-29T11:26:59;125.87;;;71.90;;
23682;SDS011;24897;53.514;10.482;2023-01-29T11:29:46;115.37;;;71.53;;
23682;SDS011;24897;53.514;10.482;2023-01-29T11:32:32;119.77;;;69.07;;
23682;SDS011;24897;53.514;10.482;2023-01-29T11:35:22;116.30;;;72.13;;
23682;SDS011;24897;53.514;10.482;2023-01-29T11:41:14;120.23;;;70.30;;
23682;SDS011;24897;53.514;10.482;2023-01-29T11:44:16;116.60;;;71.67;;
23682;SDS011;24897;53.514;10.482;2023-01-29T11:50:03;104.60;;;67.23;;
23682;SDS011;24897;53.514;10.482;2023-01-29T11:52:47;104.70;;;68.90;;
23682;SDS011;24897;53.514;10.482;2023-01-29T11:55:33;119.20;;;73.83;;
23682;SDS011;24897;53.514;10.482;2023-01-29T11:58:24;106.07;;;70.03;;
23682;SDS011;24897;53.514;10.482;2023-01-29T12:01:11;96.90;;;61.27;;
23682;SDS011;24897;53.514;10.482;2023-01-29T12:03:58;91.43;;;57.43;;
23682;SDS011;24897;53.514;10.482;2023-01-29T12:06:43;99.00;;;60.87;;
23682;SDS011;24897;53.514;10.482;2023-01-29T12:09:31;92.07;;;58.93;;
23682;SDS011;24897;53.514;10.482;2023-01-29T12:12:38;91.00;;;56.93;;
23682;SDS011;24897;53.514;10.482;2023-01-29T12:15:24;87.53;;;58.97;;
23682;SDS011;24897;53.514;10.482;2023-01-29T12:21:09;87.77;;;58.70;;
23682;SDS011;24897;53.514;10.482;2023-01-29T12:27:18;87.60;;;57.50;;
23682;SDS011;24897;53.514;10.482;2023-01-29T12:30:11;81.13;;;53.57;;
23682;SDS011;24897;53.514;10.482;2023-01-29T12:33:36;82.47;;;54.43;;
23682;SDS011;24897;53.514;10.482;2023-01-29T12:39:23;84.10;;;54.83;;
23682;SDS011;24897;53.514;10.482;2023-01-29T12:42:09;83.93;;;56.07;;
23682;SDS011;24897;53.514;10.482;2023-01-29T12:45:06;82.07;;;57.00;;
23682;SDS011;24897;53.514;10.482;2023-01-29T12:47:54;81.27;;;59.30;;
23682;SDS011;24897;53.514;10.482;2023-01-29T12:50:44;83.60;;;59.40;;
23682;SDS011;24897;53.514;10.482;2023-01-29T12:53:40;78.40;;;57.87;;
23682;SDS011;24897;53.514;10.482;2023-01-29T12:56:28;83.60;;;59.93;;
23682;SDS011;24897;53.514;10.482;2023-01-29T12:59:43;80.53;;;55.70;;
23682;SDS011;24897;53.514;10.482;2023-01-29T13:02:39;82.07;;;56.07;;
23682;SDS011;24897;53.514;10.482;2023-01-29T13:05:41;76.97;;;54.87;;
23682;SDS011;24897;53.514;10.482;2023-01-29T13:08:41;76.67;;;53.93;;
23682;SDS011;24897;53.514;10.482;2023-01-29T13:11:39;75.87;;;52.87;;
23682;SDS011;24897;53.514;10.482;2023-01-29T13:14:35;81.07;;;55.40;;
23682;SDS011;24897;53.514;10.482;2023-01-29T13:18:06;78.37;;;55.60;;
23682;SDS011;24897;53.514;10.482;2023-01-29T13:20:50;81.57;;;54.10;;
23682;SDS011;24897;53.514;10.482;2023-01-29T13:23:36;83.33;;;56.97;;
23682;SDS011;24897;53.514;10.482;2023-01-29T13:26:26;82.53;;;57.67;;
23682;SDS011;24897;53.514;10.482;2023-01-29T13:29:23;78.87;;;55.50;;
23682;SDS011;24897;53.514;10.482;2023-01-29T13:32:10;74.60;;;51.43;;
23682;SDS011;24897;53.514;10.482;2023-01-29T13:35:03;76.90;;;55.83;;
23682;SDS011;24897;53.514;10.482;2023-01-29T13:37:55;78.87;;;56.70;;
23682;SDS011;24897;53.514;10.482;2023-01-29T13:40:46;72.77;;;50.37;;
23682;SDS011;24897;53.514;10.482;2023-01-29T13:43:34;72.87;;;50.60;;
23682;SDS011;24897;53.514;10.482;2023-01-29T13:46:21;69.23;;;53.60;;
23682;SDS011;24897;53.514;10.482;2023-01-29T13:49:12;68.50;;;53.67;;
23682;SDS011;24897;53.514;10.482;2023-01-29T13:52:29;68.37;;;50.63;;
23682;SDS011;24897;53.514;10.482;2023-01-29T13:55:29;72.03;;;51.07;;
23682;SDS011;24897;53.514;10.482;2023-01-29T14:01:15;78.17;;;52.63;;
23682;SDS011;24897;53.514;10.482;2023-01-29T14:04:13;69.73;;;51.27;;
23682;SDS011;24897;53.514;10.482;2023-01-29T14:07:01;73.77;;;54.97;;
23682;SDS011;24897;53.514;10.482;2023-01-29T14:10:33;70.97;;;51.77;;
23682;SDS011;24897;53.514;10.482;2023-01-29T14:18:55;77.63;;;53.53;;
23682;SDS011;24897;53.514;10.482;2023-01-29T14:21:47;72.43;;;50.87;;
23682;SDS011;24897;53.514;10.482;2023-01-29T14:24:32;69.07;;;49.80;;
23682;SDS011;24897;53.514;10.482;2023-01-29T14:27:18;71.70;;;54.23;;
23682;SDS011;24897;53.514;10.482;2023-01-29T14:30:08;71.17;;;51.83;;
23682;SDS011;24897;53.514;10.482;2023-01-29T14:33:01;76.33;;;54.10;;
23682;SDS011;24897;53.514;10.482;2023-01-29T14:35:48;76.60;;;55.30;;
23682;SDS011;24897;53.514;10.482;2023-01-29T14:38:34;76.87;;;51.30;;
23682;SDS011;24897;53.514;10.482;2023-01-29T14:41:22;75.80;;;54.37;;
23682;SDS011;24897;53.514;10.482;2023-01-29T14:56:02;81.87;;;55.90;;
23682;SDS011;24897;53.514;10.482;2023-01-29T15:02:11;78.60;;;55.23;;
23682;SDS011;24897;53.514;10.482;2023-01-29T15:05:03;81.93;;;56.13;;
23682;SDS011;24897;53.514;10.482;2023-01-29T15:08:02;76.47;;;55.20;;
23682;SDS011;24897;53.514;10.482;2023-01-29T15:10:56;76.90;;;53.53;;
23682;SDS011;24897;53.514;10.482;2023-01-29T15:17:15;79.47;;;52.53;;
23682;SDS011;24897;53.514;10.482;2023-01-29T15:20:30;75.50;;;52.43;;
23682;SDS011;24897;53.514;10.482;2023-01-29T15:23:27;78.07;;;52.97;;
23682;SDS011;24897;53.514;10.482;2023-01-29T15:26:18;78.97;;;52.57;;
23682;SDS011;24897;53.514;10.482;2023-01-29T15:29:04;83.30;;;56.10;;
23682;SDS011;24897;53.514;10.482;2023-01-29T15:31:49;81.13;;;54.83;;
23682;SDS011;24897;53.514;10.482;2023-01-29T15:34:34;81.27;;;58.00;;
23682;SDS011;24897;53.514;10.482;2023-01-29T15:37:29;87.13;;;55.40;;
23682;SDS011;24897;53.514;10.482;2023-01-29T15:40:15;86.40;;;58.37;;
23682;SDS011;24897;53.514;10.482;2023-01-29T15:43:01;87.30;;;56.53;;
23682;SDS011;24897;53.514;10.482;2023-01-29T15:45:59;87.30;;;57.43;;
23682;SDS011;24897;53.514;10.482;2023-01-29T15:48:45;91.47;;;59.97;;
23682;SDS011;24897;53.514;10.482;2023-01-29T15:51:31;93.40;;;61.03;;
23682;SDS011;24897;53.514;10.482;2023-01-29T15:54:16;90.67;;;58.43;;
23682;SDS011;24897;53.514;10.482;2023-01-29T15:57:01;84.57;;;58.47;;
23682;SDS011;24897;53.514;10.482;2023-01-29T15:59:46;87.37;;;57.80;;
23682;SDS011;24897;53.514;10.482;2023-01-29T16:05:29;89.07;;;62.77;;
23682;SDS011;24897;53.514;10.482;2023-01-29T16:08:15;95.53;;;62.07;;
23682;SDS011;24897;53.514;10.482;2023-01-29T16:11:01;89.50;;;61.00;;
23682;SDS011;24897;53.514;10.482;2023-01-29T16:13:48;95.67;;;63.50;;
23682;SDS011;24897;53.514;10.482;2023-01-29T16:16:33;98.77;;;64.23;;
23682;SDS011;24897;53.514;10.482;2023-01-29T16:19:25;88.47;;;61.17;;
23682;SDS011;24897;53.514;10.482;2023-01-29T16:22:11;95.53;;;62.83;;
23682;SDS011;24897;53.514;10.482;2023-01-29T16:25:04;106.93;;;69.30;;
23682;SDS011;24897;53.514;10.482;2023-01-29T16:27:53;96.33;;;60.10;;
23682;SDS011;24897;53.514;10.482;2023-01-29T16:30:37;101.00;;;63.40;;
23682;SDS011;24897;53.514;10.482;2023-01-29T16:33:22;98.10;;;61.70;;
23682;SDS011;24897;53.514;10.482;2023-01-29T16:36:19;89.30;;;57.27;;
23682;SDS011;24897;53.514;10.482;2023-01-29T16:39:11;88.90;;;62.37;;
23682;SDS011;24897;53.514;10.482;2023-01-29T16:47:46;87.43;;;62.27;;
23682;SDS011;24897;53.514;10.482;2023-01-29T16:51:04;87.97;;;56.90;;
23682;SDS011;24897;53.514;10.482;2023-01-29T16:53:59;83.73;;;59.27;;
23682;SDS011;24897;53.514;10.482;2023-01-29T16:57:00;85.47;;;57.20;;
23682;SDS011;24897;53.514;10.482;2023-01-29T16:59:45;85.10;;;61.57;;
23682;SDS011;24897;53.514;10.482;2023-01-29T17:02:31;88.17;;;59.13;;
23682;SDS011;24897;53.514;10.482;2023-01-29T17:05:25;84.50;;;57.53;;
23682;SDS011;24897;53.514;10.482;2023-01-29T17:11:37;81.13;;;54.63;;
23682;SDS011;24897;53.514;10.482;2023-01-29T17:14:24;82.90;;;56.77;;
23682;SDS011;24897;53.514;10.482;2023-01-29T17:17:14;85.63;;;54.77;;
23682;SDS011;24897;53.514;10.482;2023-01-29T17:20:12;79.17;;;53.73;;
23682;SDS011;24897;53.514;10.482;2023-01-29T17:22:58;86.93;;;53.53;;
23682;SDS011;24897;53.514;10.482;2023-01-29T17:25:42;81.47;;;53.40;;
23682;SDS011;24897;53.514;10.482;2023-01-29T17:28:27;87.13;;;56.63;;
23682;SDS011;24897;53.514;10.482;2023-01-29T17:31:11;87.33;;;56.60;;
23682;SDS011;24897;53.514;10.482;2023-01-29T17:33:55;80.80;;;52.00;;
23682;SDS011;24897;53.514;10.482;2023-01-29T17:36:40;88.70;;;60.43;;
23682;SDS011;24897;53.514;10.482;2023-01-29T17:39:27;83.03;;;54.73;;
23682;SDS011;24897;53.514;10.482;2023-01-29T17:42:12;79.27;;;52.27;;
23682;SDS011;24897;53.514;10.482;2023-01-29T17:44:57;84.90;;;56.63;;
23682;SDS011;24897;53.514;10.482;2023-01-29T17:47:41;77.93;;;53.20;;
23682;SDS011;24897;53.514;10.482;2023-01-29T17:50:26;74.17;;;51.03;;
23682;SDS011;24897;53.514;10.482;2023-01-29T17:53:14;76.60;;;51.87;;
23682;SDS011;24897;53.514;10.482;2023-01-29T17:55:59;71.10;;;50.23;;
23682;SDS011;24897;53.514;10.482;2023-01-29T17:58:43;72.50;;;49.70;;
23682;SDS011;24897;53.514;10.482;2023-01-29T18:01:27;77.10;;;53.20;;
23682;SDS011;24897;53.514;10.482;2023-01-29T18:04:11;75.37;;;52.87;;
23682;SDS011;24897;53.514;10.482;2023-01-29T18:06:56;70.83;;;48.87;;
23682;SDS011;24897;53.514;10.482;2023-01-29T18:09:41;72.70;;;49.93;;
23682;SDS011;24897;53.514;10.482;2023-01-29T18:12:25;83.77;;;51.53;;
23682;SDS011;24897;53.514;10.482;2023-01-29T18:15:09;77.43;;;55.33;;
23682;SDS011;24897;53.514;10.482;2023-01-29T18:17:54;77.70;;;56.93;;
23682;SDS011;24897;53.514;10.482;2023-01-29T18:20:38;75.77;;;52.47;;
23682;SDS011;24897;53.514;10.482;2023-01-29T18:23:22;76.03;;;52.37;;
23682;SDS011;24897;53.514;10.482;2023-01-29T18:26:09;81.23;;;59.20;;
23682;SDS011;24897;53.514;10.482;2023-01-29T18:28:54;81.67;;;55.07;;
23682;SDS011;24897;53.514;10.482;2023-01-29T18:31:38;81.70;;;54.23;;